Portada
METAR-TAF:

METAR-TAF

Aeropuertos :

Yazd, Irán

latitud: 31-54N, longitud: 054-24E, altitud: 1238 m

Observación

El informe se hizo hace 24 minutos, a las 12:30 UTC
Viento 2 kt del este-noreste
Temperatura 26°C
Humedad 10%
Presión 1017 hPa
Visibilidad 10 km o más
Escasas nubes a una altura de 10000 ft
Cielo nuboso a una altura de 19000 ft

METAR: OIYY 041230Z 07002KT 9999 FEW100 BKN190 26/M08 Q1017

Hora: 17:24 (12:54 UTC)


TAF: falta

Observaciones y pronósticos meteorológicos de más de 4000 aeropuertos (mensajes METAR y TAF).

Los puntos amarillos y rojos representan las estaciones disponibles.

Ponga el ratón en el punto deseado para ver el nombre de la estación.

Haga clic para ver las observaciones y los pronósticos meteorológicos.

Para cambiar el mapa : haga clic en los botones verdes con una cruz de color negro para hacer un zoom, en el botón verde con un guión para alejar o en las flechas verdes para mapas adyacentes.


METAR-TAF: